sensor_id;sensor_type;location;lat;lon;timestamp;pressure;altitude;pressure_sealevel;temperature;humidity
47738;BME280;33502;47.182;27.506;2023-07-24T00:00:39;100189.41;;;16.10;100.00
47738;BME280;33502;47.182;27.506;2023-07-24T00:03:05;100193.78;;;16.11;100.00
47738;BME280;33502;47.182;27.506;2023-07-24T00:05:31;100196.66;;;16.08;100.00
47738;BME280;33502;47.182;27.506;2023-07-24T00:07:57;100200.19;;;16.09;100.00
47738;BME280;33502;47.182;27.506;2023-07-24T00:10:22;100203.81;;;16.08;100.00
47738;BME280;33502;47.182;27.506;2023-07-24T00:12:48;100190.91;;;16.14;100.00
47738;BME280;33502;47.182;27.506;2023-07-24T00:15:13;100188.88;;;16.18;100.00
47738;BME280;33502;47.182;27.506;2023-07-24T00:17:39;100196.88;;;16.18;100.00
47738;BME280;33502;47.182;27.506;2023-07-24T00:20:05;100200.53;;;16.17;100.00
47738;BME280;33502;47.182;27.506;2023-07-24T00:22:31;100199.03;;;16.13;100.00
47738;BME280;33502;47.182;27.506;2023-07-24T00:24:57;100198.59;;;16.06;100.00
47738;BME280;33502;47.182;27.506;2023-07-24T00:27:22;100201.44;;;16.03;100.00
47738;BME280;33502;47.182;27.506;2023-07-24T00:29:48;100191.00;;;16.00;100.00
47738;BME280;33502;47.182;27.506;2023-07-24T00:32:13;100192.91;;;15.98;100.00
47738;BME280;33502;47.182;27.506;2023-07-24T00:34:39;100185.31;;;15.92;100.00
47738;BME280;33502;47.182;27.506;2023-07-24T00:37:05;100179.63;;;15.83;100.00
47738;BME280;33502;47.182;27.506;2023-07-24T00:39:30;100179.09;;;15.78;100.00
47738;BME280;33502;47.182;27.506;2023-07-24T00:41:56;100179.28;;;15.75;100.00
47738;BME280;33502;47.182;27.506;2023-07-24T00:44:22;100174.88;;;15.74;100.00
47738;BME280;33502;47.182;27.506;2023-07-24T00:46:47;100181.38;;;15.70;100.00
47738;BME280;33502;47.182;27.506;2023-07-24T00:49:13;100174.63;;;15.64;100.00
47738;BME280;33502;47.182;27.506;2023-07-24T00:51:39;100173.97;;;15.61;100.00
47738;BME280;33502;47.182;27.506;2023-07-24T00:54:05;100167.13;;;15.57;100.00
47738;BME280;33502;47.182;27.506;2023-07-24T00:56:31;100160.94;;;15.56;100.00
47738;BME280;33502;47.182;27.506;2023-07-24T00:58:57;100169.59;;;15.60;100.00
47738;BME280;33502;47.182;27.506;2023-07-24T01:01:23;100161.50;;;15.61;100.00
47738;BME280;33502;47.182;27.506;2023-07-24T01:03:49;100155.75;;;15.68;100.00
47738;BME280;33502;47.182;27.506;2023-07-24T01:06:15;100151.25;;;15.68;100.00
47738;BME280;33502;47.182;27.506;2023-07-24T01:08:40;100147.94;;;15.64;100.00
47738;BME280;33502;47.182;27.506;2023-07-24T01:13:36;100162.75;;;15.56;100.00
47738;BME280;33502;47.182;27.506;2023-07-24T01:16:08;100158.25;;;15.56;100.00
47738;BME280;33502;47.182;27.506;2023-07-24T01:18:35;100157.00;;;15.62;100.00
47738;BME280;33502;47.182;27.506;2023-07-24T01:21:02;100167.69;;;15.62;100.00
47738;BME280;33502;47.182;27.506;2023-07-24T01:25:59;100162.09;;;15.52;100.00
47738;BME280;33502;47.182;27.506;2023-07-24T01:28:25;100164.19;;;15.47;100.00
47738;BME280;33502;47.182;27.506;2023-07-24T01:30:52;100167.19;;;15.42;100.00
47738;BME280;33502;47.182;27.506;2023-07-24T01:33:17;100162.59;;;15.44;100.00
47738;BME280;33502;47.182;27.506;2023-07-24T01:35:45;100161.84;;;15.42;100.00
47738;BME280;33502;47.182;27.506;2023-07-24T01:38:15;100163.16;;;15.50;100.00
47738;BME280;33502;47.182;27.506;2023-07-24T01:40:41;100161.53;;;15.47;100.00
47738;BME280;33502;47.182;27.506;2023-07-24T01:43:07;100169.75;;;15.44;100.00
47738;BME280;33502;47.182;27.506;2023-07-24T01:45:33;100169.00;;;15.42;100.00
47738;BME280;33502;47.182;27.506;2023-07-24T01:47:59;100155.09;;;15.37;100.00
47738;BME280;33502;47.182;27.506;2023-07-24T01:50:26;100159.88;;;15.32;100.00
47738;BME280;33502;47.182;27.506;2023-07-24T01:52:51;100157.50;;;15.27;100.00
47738;BME280;33502;47.182;27.506;2023-07-24T01:55:17;100156.94;;;15.22;100.00
47738;BME280;33502;47.182;27.506;2023-07-24T01:57:43;100159.81;;;15.19;100.00
47738;BME280;33502;47.182;27.506;2023-07-24T02:00:09;100158.94;;;15.18;100.00
47738;BME280;33502;47.182;27.506;2023-07-24T02:02:35;100158.59;;;15.10;100.00
47738;BME280;33502;47.182;27.506;2023-07-24T02:05:01;100156.34;;;15.04;100.00
47738;BME280;33502;47.182;27.506;2023-07-24T02:07:26;100157.59;;;14.98;100.00
47738;BME280;33502;47.182;27.506;2023-07-24T02:09:52;100155.09;;;14.95;100.00
47738;BME280;33502;47.182;27.506;2023-07-24T02:12:17;100160.72;;;14.91;100.00
47738;BME280;33502;47.182;27.506;2023-07-24T02:14:43;100159.09;;;14.88;100.00
47738;BME280;33502;47.182;27.506;2023-07-24T02:17:10;100153.69;;;14.90;100.00
47738;BME280;33502;47.182;27.506;2023-07-24T02:19:35;100152.06;;;14.87;100.00
47738;BME280;33502;47.182;27.506;2023-07-24T02:22:01;100150.56;;;14.83;100.00
47738;BME280;33502;47.182;27.506;2023-07-24T02:24:26;100155.13;;;14.81;100.00
47738;BME280;33502;47.182;27.506;2023-07-24T02:26:52;100152.25;;;14.98;100.00
47738;BME280;33502;47.182;27.506;2023-07-24T02:29:18;100151.00;;;15.04;100.00
47738;BME280;33502;47.182;27.506;2023-07-24T02:31:44;100148.34;;;15.04;100.00
47738;BME280;33502;47.182;27.506;2023-07-24T02:34:09;100149.28;;;15.03;100.00
47738;BME280;33502;47.182;27.506;2023-07-24T02:36:35;100151.19;;;15.01;100.00
47738;BME280;33502;47.182;27.506;2023-07-24T02:39:01;100153.84;;;15.01;100.00
47738;BME280;33502;47.182;27.506;2023-07-24T02:41:27;100154.69;;;15.01;100.00
47738;BME280;33502;47.182;27.506;2023-07-24T02:43:53;100159.84;;;15.04;100.00
47738;BME280;33502;47.182;27.506;2023-07-24T02:46:18;100162.41;;;15.06;100.00
47738;BME280;33502;47.182;27.506;2023-07-24T02:48:44;100164.03;;;15.08;100.00
47738;BME280;33502;47.182;27.506;2023-07-24T02:51:10;100165.75;;;15.10;100.00
47738;BME280;33502;47.182;27.506;2023-07-24T02:53:35;100166.50;;;15.12;100.00
47738;BME280;33502;47.182;27.506;2023-07-24T02:56:01;100168.41;;;15.10;100.00
47738;BME280;33502;47.182;27.506;2023-07-24T02:58:27;100162.59;;;15.17;100.00
47738;BME280;33502;47.182;27.506;2023-07-24T03:00:53;100167.88;;;15.32;100.00
47738;BME280;33502;47.182;27.506;2023-07-24T03:03:19;100172.06;;;15.36;100.00
47738;BME280;33502;47.182;27.506;2023-07-24T03:05:44;100172.63;;;15.41;100.00
47738;BME280;33502;47.182;27.506;2023-07-24T03:08:10;100166.13;;;15.45;100.00
47738;BME280;33502;47.182;27.506;2023-07-24T03:10:39;100168.50;;;15.50;100.00
47738;BME280;33502;47.182;27.506;2023-07-24T03:13:05;100170.75;;;15.56;100.00
47738;BME280;33502;47.182;27.506;2023-07-24T03:15:30;100168.94;;;15.56;100.00
47738;BME280;33502;47.182;27.506;2023-07-24T03:17:56;100168.84;;;15.58;100.00
47738;BME280;33502;47.182;27.506;2023-07-24T03:20:21;100170.53;;;15.59;100.00
47738;BME280;33502;47.182;27.506;2023-07-24T03:22:47;100169.41;;;15.63;100.00
47738;BME280;33502;47.182;27.506;2023-07-24T03:25:13;100169.19;;;15.66;100.00
47738;BME280;33502;47.182;27.506;2023-07-24T03:27:38;100163.56;;;15.71;100.00
47738;BME280;33502;47.182;27.506;2023-07-24T03:30:04;100163.16;;;15.77;100.00
47738;BME280;33502;47.182;27.506;2023-07-24T03:32:30;100166.06;;;15.87;100.00
47738;BME280;33502;47.182;27.506;2023-07-24T03:34:55;100167.38;;;15.94;100.00
47738;BME280;33502;47.182;27.506;2023-07-24T03:37:21;100180.63;;;16.08;100.00
47738;BME280;33502;47.182;27.506;2023-07-24T03:39:48;100180.56;;;16.22;100.00
47738;BME280;33502;47.182;27.506;2023-07-24T03:42:23;100180.56;;;16.35;100.00
47738;BME280;33502;47.182;27.506;2023-07-24T03:44:51;100174.28;;;16.49;100.00
47738;BME280;33502;47.182;27.506;2023-07-24T03:47:16;100169.97;;;16.59;100.00
47738;BME280;33502;47.182;27.506;2023-07-24T03:49:42;100170.06;;;16.71;100.00
47738;BME280;33502;47.182;27.506;2023-07-24T03:52:07;100177.25;;;16.83;100.00
47738;BME280;33502;47.182;27.506;2023-07-24T03:54:33;100173.81;;;16.94;100.00
47738;BME280;33502;47.182;27.506;2023-07-24T03:56:58;100172.19;;;17.04;100.00
47738;BME280;33502;47.182;27.506;2023-07-24T03:59:24;100170.31;;;17.17;100.00
47738;BME280;33502;47.182;27.506;2023-07-24T04:01:49;100171.13;;;17.31;100.00
47738;BME280;33502;47.182;27.506;2023-07-24T04:04:15;100165.75;;;17.44;100.00
47738;BME280;33502;47.182;27.506;2023-07-24T04:06:41;100175.31;;;17.59;100.00
47738;BME280;33502;47.182;27.506;2023-07-24T04:09:06;100168.81;;;17.74;100.00
47738;BME280;33502;47.182;27.506;2023-07-24T04:11:32;100172.09;;;17.91;100.00
47738;BME280;33502;47.182;27.506;2023-07-24T04:13:58;100169.06;;;18.07;100.00
47738;BME280;33502;47.182;27.506;2023-07-24T04:16:23;100166.78;;;18.25;100.00
47738;BME280;33502;47.182;27.506;2023-07-24T04:18:49;100159.28;;;18.41;100.00
47738;BME280;33502;47.182;27.506;2023-07-24T04:21:14;100158.19;;;18.55;100.00
47738;BME280;33502;47.182;27.506;2023-07-24T04:23:40;100162.00;;;18.75;100.00
47738;BME280;33502;47.182;27.506;2023-07-24T04:26:05;100159.56;;;18.94;100.00
47738;BME280;33502;47.182;27.506;2023-07-24T04:28:31;100163.94;;;19.07;100.00
47738;BME280;33502;47.182;27.506;2023-07-24T04:30:59;100170.00;;;19.20;100.00
47738;BME280;33502;47.182;27.506;2023-07-24T04:33:25;100165.09;;;19.36;100.00
47738;BME280;33502;47.182;27.506;2023-07-24T04:35:54;100167.34;;;19.64;100.00
47738;BME280;33502;47.182;27.506;2023-07-24T04:38:19;100168.34;;;19.95;100.00
47738;BME280;33502;47.182;27.506;2023-07-24T04:40:45;100169.00;;;20.29;100.00
47738;BME280;33502;47.182;27.506;2023-07-24T04:43:10;100170.38;;;20.66;100.00
47738;BME280;33502;47.182;27.506;2023-07-24T04:45:36;100166.28;;;21.12;100.00
47738;BME280;33502;47.182;27.506;2023-07-24T04:48:02;100166.44;;;21.80;100.00
47738;BME280;33502;47.182;27.506;2023-07-24T04:50:27;100168.75;;;22.52;100.00
47738;BME280;33502;47.182;27.506;2023-07-24T04:52:53;100174.09;;;23.09;100.00
47738;BME280;33502;47.182;27.506;2023-07-24T04:55:19;100163.59;;;23.51;100.00
47738;BME280;33502;47.182;27.506;2023-07-24T04:57:44;100168.78;;;23.80;100.00
47738;BME280;33502;47.182;27.506;2023-07-24T05:00:10;100168.56;;;24.36;100.00
47738;BME280;33502;47.182;27.506;2023-07-24T05:02:35;100166.28;;;25.18;100.00
47738;BME280;33502;47.182;27.506;2023-07-24T05:05:01;100163.44;;;26.03;98.74
47738;BME280;33502;47.182;27.506;2023-07-24T05:07:27;100161.34;;;26.54;91.95
47738;BME280;33502;47.182;27.506;2023-07-24T05:09:52;100167.28;;;26.50;89.11
47738;BME280;33502;47.182;27.506;2023-07-24T05:12:18;100166.75;;;27.27;86.54
47738;BME280;33502;47.182;27.506;2023-07-24T05:14:44;100168.78;;;27.79;78.76
47738;BME280;33502;47.182;27.506;2023-07-24T05:17:09;100163.09;;;28.12;77.61
47738;BME280;33502;47.182;27.506;2023-07-24T05:19:35;100168.47;;;28.35;75.00
47738;BME280;33502;47.182;27.506;2023-07-24T05:22:00;100171.09;;;28.66;71.47
47738;BME280;33502;47.182;27.506;2023-07-24T05:24:26;100174.56;;;29.05;70.53
47738;BME280;33502;47.182;27.506;2023-07-24T05:26:51;100173.41;;;29.29;67.67
47738;BME280;33502;47.182;27.506;2023-07-24T05:29:17;100169.03;;;29.71;66.47
47738;BME280;33502;47.182;27.506;2023-07-24T05:31:43;100164.31;;;29.58;65.66
47738;BME280;33502;47.182;27.506;2023-07-24T05:34:08;100170.34;;;30.18;64.57
47738;BME280;33502;47.182;27.506;2023-07-24T05:36:34;100168.00;;;30.65;62.33
47738;BME280;33502;47.182;27.506;2023-07-24T05:38:59;100163.38;;;30.72;63.11
47738;BME280;33502;47.182;27.506;2023-07-24T05:41:25;100161.78;;;30.84;61.73
47738;BME280;33502;47.182;27.506;2023-07-24T05:43:50;100155.56;;;30.97;62.56
47738;BME280;33502;47.182;27.506;2023-07-24T05:46:16;100162.00;;;31.31;58.63
47738;BME280;33502;47.182;27.506;2023-07-24T05:48:41;100160.78;;;31.40;57.12
47738;BME280;33502;47.182;27.506;2023-07-24T05:51:07;100157.72;;;31.09;58.42
47738;BME280;33502;47.182;27.506;2023-07-24T05:53:33;100158.66;;;31.36;58.45
47738;BME280;33502;47.182;27.506;2023-07-24T05:55:58;100151.09;;;31.38;58.16
47738;BME280;33502;47.182;27.506;2023-07-24T05:58:25;100143.59;;;31.53;55.42
47738;BME280;33502;47.182;27.506;2023-07-24T06:00:51;100146.81;;;32.30;54.46
47738;BME280;33502;47.182;27.506;2023-07-24T06:03:16;100145.31;;;32.68;51.99
47738;BME280;33502;47.182;27.506;2023-07-24T06:05:42;100145.25;;;32.74;51.32
47738;BME280;33502;47.182;27.506;2023-07-24T06:08:08;100141.28;;;32.70;50.99
47738;BME280;33502;47.182;27.506;2023-07-24T06:10:37;100140.38;;;32.90;51.59
47738;BME280;33502;47.182;27.506;2023-07-24T06:13:02;100149.94;;;33.26;48.70
47738;BME280;33502;47.182;27.506;2023-07-24T06:15:28;100141.59;;;32.94;49.85
47738;BME280;33502;47.182;27.506;2023-07-24T06:17:54;100139.06;;;32.99;50.28
47738;BME280;33502;47.182;27.506;2023-07-24T06:20:19;100135.84;;;33.09;49.59
47738;BME280;33502;47.182;27.506;2023-07-24T06:22:45;100135.81;;;33.22;49.27
47738;BME280;33502;47.182;27.506;2023-07-24T06:25:10;100133.13;;;33.47;48.73
47738;BME280;33502;47.182;27.506;2023-07-24T06:27:36;100131.72;;;33.77;48.02
47738;BME280;33502;47.182;27.506;2023-07-24T06:30:01;100126.25;;;33.70;47.15
47738;BME280;33502;47.182;27.506;2023-07-24T06:32:27;100136.00;;;33.98;43.58
47738;BME280;33502;47.182;27.506;2023-07-24T06:34:53;100132.50;;;34.09;42.34
47738;BME280;33502;47.182;27.506;2023-07-24T06:37:18;100132.03;;;34.37;42.21
47738;BME280;33502;47.182;27.506;2023-07-24T06:39:44;100129.97;;;34.76;41.54
47738;BME280;33502;47.182;27.506;2023-07-24T06:42:09;100127.19;;;34.95;39.89
47738;BME280;33502;47.182;27.506;2023-07-24T06:44:35;100131.34;;;34.67;40.41
47738;BME280;33502;47.182;27.506;2023-07-24T06:47:01;100125.16;;;34.71;41.91
47738;BME280;33502;47.182;27.506;2023-07-24T06:49:26;100127.19;;;35.32;41.53
47738;BME280;33502;47.182;27.506;2023-07-24T06:51:52;100124.50;;;35.67;42.75
47738;BME280;33502;47.182;27.506;2023-07-24T06:54:17;100120.28;;;35.83;39.14
47738;BME280;33502;47.182;27.506;2023-07-24T06:56:43;100124.09;;;35.40;40.91
47738;BME280;33502;47.182;27.506;2023-07-24T06:59:08;100124.34;;;35.80;39.90
47738;BME280;33502;47.182;27.506;2023-07-24T07:01:34;100124.25;;;36.58;39.57
47738;BME280;33502;47.182;27.506;2023-07-24T07:04:00;100119.91;;;36.86;38.87
47738;BME280;33502;47.182;27.506;2023-07-24T07:06:25;100120.56;;;36.29;39.32
47738;BME280;33502;47.182;27.506;2023-07-24T07:08:51;100125.59;;;36.32;38.44
47738;BME280;33502;47.182;27.506;2023-07-24T07:11:16;100117.31;;;35.96;39.48
47738;BME280;33502;47.182;27.506;2023-07-24T07:13:42;100119.25;;;36.31;40.22
47738;BME280;33502;47.182;27.506;2023-07-24T07:16:08;100116.59;;;36.24;39.38
47738;BME280;33502;47.182;27.506;2023-07-24T07:18:33;100105.91;;;36.63;38.73
47738;BME280;33502;47.182;27.506;2023-07-24T07:20:59;100115.75;;;37.12;38.64
47738;BME280;33502;47.182;27.506;2023-07-24T07:23:25;100110.13;;;36.19;38.51
47738;BME280;33502;47.182;27.506;2023-07-24T07:25:51;100118.38;;;36.07;39.51
47738;BME280;33502;47.182;27.506;2023-07-24T07:28:17;100107.94;;;35.97;40.71
47738;BME280;33502;47.182;27.506;2023-07-24T07:30:44;100104.56;;;35.72;40.09
47738;BME280;33502;47.182;27.506;2023-07-24T07:33:09;100099.34;;;35.63;40.14
47738;BME280;33502;47.182;27.506;2023-07-24T07:35:37;100098.84;;;35.85;40.51
47738;BME280;33502;47.182;27.506;2023-07-24T07:38:02;100102.56;;;35.91;42.94
47738;BME280;33502;47.182;27.506;2023-07-24T07:40:28;100106.63;;;36.59;39.91
47738;BME280;33502;47.182;27.506;2023-07-24T07:42:54;100100.31;;;36.47;38.57
47738;BME280;33502;47.182;27.506;2023-07-24T07:45:20;100098.88;;;36.44;37.89
47738;BME280;33502;47.182;27.506;2023-07-24T07:47:46;100096.34;;;36.42;39.81
47738;BME280;33502;47.182;27.506;2023-07-24T07:50:11;100097.47;;;36.94;38.82
47738;BME280;33502;47.182;27.506;2023-07-24T07:52:38;100094.28;;;36.61;38.68
47738;BME280;33502;47.182;27.506;2023-07-24T07:55:04;100088.69;;;36.21;38.07
47738;BME280;33502;47.182;27.506;2023-07-24T07:57:32;100080.03;;;35.94;41.08
47738;BME280;33502;47.182;27.506;2023-07-24T07:59:59;100086.97;;;36.55;38.96
47738;BME280;33502;47.182;27.506;2023-07-24T08:02:24;100082.06;;;36.69;39.27
47738;BME280;33502;47.182;27.506;2023-07-24T08:04:50;100079.81;;;36.42;38.29
47738;BME280;33502;47.182;27.506;2023-07-24T08:07:15;100079.38;;;36.86;42.27
47738;BME280;33502;47.182;27.506;2023-07-24T08:09:41;100080.69;;;37.41;37.42
47738;BME280;33502;47.182;27.506;2023-07-24T08:12:07;100080.63;;;37.53;36.54
47738;BME280;33502;47.182;27.506;2023-07-24T08:14:32;100070.09;;;37.50;35.14
47738;BME280;33502;47.182;27.506;2023-07-24T08:16:58;100077.41;;;37.90;34.29
47738;BME280;33502;47.182;27.506;2023-07-24T08:19:23;100068.34;;;37.44;34.38
47738;BME280;33502;47.182;27.506;2023-07-24T08:21:53;100065.41;;;37.50;35.97
47738;BME280;33502;47.182;27.506;2023-07-24T08:24:18;100063.69;;;37.78;33.61
47738;BME280;33502;47.182;27.506;2023-07-24T08:26:44;100068.97;;;37.63;35.44
47738;BME280;33502;47.182;27.506;2023-07-24T08:29:09;100065.53;;;37.89;34.02
47738;BME280;33502;47.182;27.506;2023-07-24T08:31:35;100065.59;;;37.77;33.34
47738;BME280;33502;47.182;27.506;2023-07-24T08:34:00;100062.94;;;37.66;32.84
47738;BME280;33502;47.182;27.506;2023-07-24T08:36:26;100058.66;;;37.75;33.19
47738;BME280;33502;47.182;27.506;2023-07-24T08:38:51;100058.22;;;38.17;32.28
47738;BME280;33502;47.182;27.506;2023-07-24T08:41:17;100059.94;;;38.06;32.60
47738;BME280;33502;47.182;27.506;2023-07-24T08:43:43;100063.97;;;37.31;32.67
47738;BME280;33502;47.182;27.506;2023-07-24T08:46:09;100058.38;;;36.85;33.44
47738;BME280;33502;47.182;27.506;2023-07-24T08:48:35;100052.88;;;36.33;34.20
47738;BME280;33502;47.182;27.506;2023-07-24T08:51:02;100055.38;;;36.22;35.32
47738;BME280;33502;47.182;27.506;2023-07-24T08:53:35;100052.47;;;36.93;35.36
47738;BME280;33502;47.182;27.506;2023-07-24T08:56:04;100047.75;;;37.51;35.69
47738;BME280;33502;47.182;27.506;2023-07-24T08:58:30;100037.91;;;37.89;33.90
47738;BME280;33502;47.182;27.506;2023-07-24T09:00:56;100049.28;;;37.76;33.00
47738;BME280;33502;47.182;27.506;2023-07-24T09:03:22;100045.13;;;36.99;33.48
47738;BME280;33502;47.182;27.506;2023-07-24T09:05:47;100036.06;;;36.11;34.40
47738;BME280;33502;47.182;27.506;2023-07-24T09:08:13;100034.28;;;36.04;34.04
47738;BME280;33502;47.182;27.506;2023-07-24T09:10:39;100032.81;;;36.02;35.78
47738;BME280;33502;47.182;27.506;2023-07-24T09:13:05;100026.97;;;36.74;34.26
47738;BME280;33502;47.182;27.506;2023-07-24T09:15:43;100018.19;;;37.35;33.65
47738;BME280;33502;47.182;27.506;2023-07-24T09:18:08;100011.44;;;37.76;33.35
47738;BME280;33502;47.182;27.506;2023-07-24T09:20:41;100013.81;;;38.07;32.31
47738;BME280;33502;47.182;27.506;2023-07-24T09:23:07;100008.22;;;38.02;32.94
47738;BME280;33502;47.182;27.506;2023-07-24T09:25:37;100015.69;;;37.33;32.28
47738;BME280;33502;47.182;27.506;2023-07-24T09:28:13;100009.59;;;37.02;34.27
47738;BME280;33502;47.182;27.506;2023-07-24T09:30:39;100002.38;;;36.84;35.37
47738;BME280;33502;47.182;27.506;2023-07-24T09:33:05;99998.69;;;36.79;34.40
47738;BME280;33502;47.182;27.506;2023-07-24T09:35:30;99998.16;;;36.65;34.63
47738;BME280;33502;47.182;27.506;2023-07-24T09:40:36;99991.50;;;36.14;35.36
47738;BME280;33502;47.182;27.506;2023-07-24T09:43:02;99993.16;;;36.15;35.05
47738;BME280;33502;47.182;27.506;2023-07-24T09:45:27;99989.13;;;35.94;33.40
47738;BME280;33502;47.182;27.506;2023-07-24T09:47:54;99989.94;;;35.35;34.63
47738;BME280;33502;47.182;27.506;2023-07-24T09:50:22;99987.06;;;35.65;35.40
47738;BME280;33502;47.182;27.506;2023-07-24T09:52:48;99975.97;;;34.76;35.01
47738;BME280;33502;47.182;27.506;2023-07-24T09:55:49;99974.78;;;34.72;36.33
47738;BME280;33502;47.182;27.506;2023-07-24T09:58:06;99964.66;;;34.84;34.36
47738;BME280;33502;47.182;27.506;2023-07-24T10:00:32;99960.28;;;34.46;34.44
47738;BME280;33502;47.182;27.506;2023-07-24T10:02:58;99960.28;;;34.28;35.94
47738;BME280;33502;47.182;27.506;2023-07-24T10:05:24;99961.25;;;33.97;36.83
47738;BME280;33502;47.182;27.506;2023-07-24T10:07:50;99967.75;;;34.02;36.24
47738;BME280;33502;47.182;27.506;2023-07-24T10:10:16;99960.28;;;34.28;35.05
47738;BME280;33502;47.182;27.506;2023-07-24T10:12:42;99966.38;;;35.09;34.52
47738;BME280;33502;47.182;27.506;2023-07-24T10:15:09;99959.41;;;35.60;34.43
47738;BME280;33502;47.182;27.506;2023-07-24T10:17:38;99954.38;;;35.81;31.35
47738;BME280;33502;47.182;27.506;2023-07-24T10:20:04;99953.06;;;35.60;34.51
47738;BME280;33502;47.182;27.506;2023-07-24T10:22:30;99944.09;;;35.64;35.27
47738;BME280;33502;47.182;27.506;2023-07-24T10:24:56;99942.75;;;35.67;33.84
47738;BME280;33502;47.182;27.506;2023-07-24T10:27:25;99933.78;;;35.48;35.06
47738;BME280;33502;47.182;27.506;2023-07-24T10:32:25;99935.78;;;36.23;33.53
47738;BME280;33502;47.182;27.506;2023-07-24T10:35:06;99927.19;;;36.08;31.34
47738;BME280;33502;47.182;27.506;2023-07-24T10:37:36;99925.44;;;35.78;32.78
47738;BME280;33502;47.182;27.506;2023-07-24T10:40:02;99930.13;;;36.30;32.59
47738;BME280;33502;47.182;27.506;2023-07-24T10:42:29;99914.34;;;36.14;31.52
47738;BME280;33502;47.182;27.506;2023-07-24T10:45:08;99910.56;;;35.91;32.32
47738;BME280;33502;47.182;27.506;2023-07-24T10:47:34;99910.41;;;35.15;32.85
47738;BME280;33502;47.182;27.506;2023-07-24T10:50:00;99901.38;;;34.84;34.05
47738;BME280;33502;47.182;27.506;2023-07-24T10:52:29;99893.34;;;35.25;33.44
47738;BME280;33502;47.182;27.506;2023-07-24T10:54:55;99898.84;;;35.72;31.97
47738;BME280;33502;47.182;27.506;2023-07-24T10:57:25;99905.06;;;35.91;31.32
47738;BME280;33502;47.182;27.506;2023-07-24T10:59:50;99903.31;;;36.14;30.47
47738;BME280;33502;47.182;27.506;2023-07-24T11:02:16;99898.63;;;35.74;30.94
47738;BME280;33502;47.182;27.506;2023-07-24T11:04:42;99891.19;;;35.39;30.88
47738;BME280;33502;47.182;27.506;2023-07-24T11:07:07;99893.16;;;34.96;31.13
47738;BME280;33502;47.182;27.506;2023-07-24T11:09:36;99885.34;;;34.81;32.59
47738;BME280;33502;47.182;27.506;2023-07-24T11:12:20;99883.28;;;35.31;32.56
47738;BME280;33502;47.182;27.506;2023-07-24T11:14:52;99884.56;;;35.63;31.20
47738;BME280;33502;47.182;27.506;2023-07-24T11:17:21;99879.66;;;35.65;33.14
47738;BME280;33502;47.182;27.506;2023-07-24T11:19:47;99879.59;;;36.13;31.72
47738;BME280;33502;47.182;27.506;2023-07-24T11:22:13;99879.06;;;36.56;30.91
47738;BME280;33502;47.182;27.506;2023-07-24T11:24:42;99877.09;;;36.69;31.83
47738;BME280;33502;47.182;27.506;2023-07-24T11:27:09;99867.59;;;37.10;29.25
47738;BME280;33502;47.182;27.506;2023-07-24T11:29:35;99857.31;;;36.89;29.54
47738;BME280;33502;47.182;27.506;2023-07-24T11:32:03;99863.66;;;36.89;28.53
47738;BME280;33502;47.182;27.506;2023-07-24T11:34:28;99859.31;;;36.48;28.79
47738;BME280;33502;47.182;27.506;2023-07-24T11:36:54;99871.47;;;36.47;30.81
47738;BME280;33502;47.182;27.506;2023-07-24T11:39:23;99855.56;;;36.82;29.54
47738;BME280;33502;47.182;27.506;2023-07-24T11:41:49;99860.06;;;37.39;29.31
47738;BME280;33502;47.182;27.506;2023-07-24T11:44:15;99859.75;;;37.36;29.55
47738;BME280;33502;47.182;27.506;2023-07-24T11:46:42;99848.13;;;37.34;29.44
47738;BME280;33502;47.182;27.506;2023-07-24T11:49:08;99851.81;;;37.22;28.88
47738;BME280;33502;47.182;27.506;2023-07-24T11:51:36;99842.03;;;36.98;29.32
47738;BME280;33502;47.182;27.506;2023-07-24T11:54:08;99833.66;;;36.76;29.74
47738;BME280;33502;47.182;27.506;2023-07-24T11:56:34;99835.75;;;37.19;30.93
47738;BME280;33502;47.182;27.506;2023-07-24T11:59:09;99834.59;;;37.15;30.05
47738;BME280;33502;47.182;27.506;2023-07-24T12:01:35;99837.16;;;37.22;30.98
47738;BME280;33502;47.182;27.506;2023-07-24T12:04:01;99825.28;;;37.04;31.30
47738;BME280;33502;47.182;27.506;2023-07-24T12:06:27;99823.53;;;36.98;30.84
47738;BME280;33502;47.182;27.506;2023-07-24T12:09:01;99820.69;;;36.76;32.21
47738;BME280;33502;47.182;27.506;2023-07-24T12:11:27;99822.19;;;37.01;30.23
47738;BME280;33502;47.182;27.506;2023-07-24T12:13:53;99817.28;;;36.86;31.22
47738;BME280;33502;47.182;27.506;2023-07-24T12:16:19;99824.66;;;36.80;30.96
47738;BME280;33502;47.182;27.506;2023-07-24T12:18:44;99820.69;;;36.93;31.62
47738;BME280;33502;47.182;27.506;2023-07-24T12:21:10;99820.69;;;37.10;28.73
47738;BME280;33502;47.182;27.506;2023-07-24T12:23:36;99810.84;;;37.14;29.51
47738;BME280;33502;47.182;27.506;2023-07-24T12:26:01;99818.25;;;37.31;28.74
47738;BME280;33502;47.182;27.506;2023-07-24T12:28:27;99813.78;;;37.47;29.07
47738;BME280;33502;47.182;27.506;2023-07-24T12:30:52;99813.41;;;37.38;28.61
47738;BME280;33502;47.182;27.506;2023-07-24T12:33:18;99813.69;;;37.19;28.23
47738;BME280;33502;47.182;27.506;2023-07-24T12:35:49;99813.75;;;36.74;29.96
47738;BME280;33502;47.182;27.506;2023-07-24T12:38:14;99802.41;;;36.70;30.23
47738;BME280;33502;47.182;27.506;2023-07-24T12:40:40;99799.25;;;36.50;29.19
47738;BME280;33502;47.182;27.506;2023-07-24T12:43:06;99791.88;;;36.21;30.46